sensor_id;sensor_type;location;lat;lon;timestamp;temperature;humidity
16485;DHT22;8353;47.856;12.344;2022-09-20T00:01:29;12.00;99.90
16485;DHT22;8353;47.856;12.344;2022-09-20T00:04:16;11.80;99.90
16485;DHT22;8353;47.856;12.344;2022-09-20T00:07:04;11.90;99.90
16485;DHT22;8353;47.856;12.344;2022-09-20T00:10:00;12.00;99.90
16485;DHT22;8353;47.856;12.344;2022-09-20T00:12:47;11.80;99.90
16485;DHT22;8353;47.856;12.344;2022-09-20T00:15:39;11.50;99.90
16485;DHT22;8353;47.856;12.344;2022-09-20T00:18:28;11.40;99.90
16485;DHT22;8353;47.856;12.344;2022-09-20T00:21:16;11.30;99.90
16485;DHT22;8353;47.856;12.344;2022-09-20T00:24:04;11.40;99.90
16485;DHT22;8353;47.856;12.344;2022-09-20T00:26:53;11.50;99.90
16485;DHT22;8353;47.856;12.344;2022-09-20T00:29:40;11.50;99.90
16485;DHT22;8353;47.856;12.344;2022-09-20T00:32:27;11.30;99.90
16485;DHT22;8353;47.856;12.344;2022-09-20T00:35:16;11.30;99.90
16485;DHT22;8353;47.856;12.344;2022-09-20T00:38:03;11.30;99.90
16485;DHT22;8353;47.856;12.344;2022-09-20T00:40:51;11.40;99.90
16485;DHT22;8353;47.856;12.344;2022-09-20T00:43:39;11.40;99.90
16485;DHT22;8353;47.856;12.344;2022-09-20T00:46:31;11.40;99.90
16485;DHT22;8353;47.856;12.344;2022-09-20T00:49:26;11.30;99.90
16485;DHT22;8353;47.856;12.344;2022-09-20T00:52:15;11.40;99.90
16485;DHT22;8353;47.856;12.344;2022-09-20T00:55:08;11.40;99.90
16485;DHT22;8353;47.856;12.344;2022-09-20T00:57:56;11.50;99.90
16485;DHT22;8353;47.856;12.344;2022-09-20T01:00:45;11.50;99.90
16485;DHT22;8353;47.856;12.344;2022-09-20T01:03:37;11.50;99.90
16485;DHT22;8353;47.856;12.344;2022-09-20T01:06:26;11.40;99.90
16485;DHT22;8353;47.856;12.344;2022-09-20T01:09:19;11.40;99.90
16485;DHT22;8353;47.856;12.344;2022-09-20T01:12:07;11.40;99.90
16485;DHT22;8353;47.856;12.344;2022-09-20T01:14:58;11.50;99.90
16485;DHT22;8353;47.856;12.344;2022-09-20T01:17:51;11.40;99.90
16485;DHT22;8353;47.856;12.344;2022-09-20T01:20:41;11.60;99.90
16485;DHT22;8353;47.856;12.344;2022-09-20T01:23:39;11.80;99.90
16485;DHT22;8353;47.856;12.344;2022-09-20T01:27:01;11.90;99.90
16485;DHT22;8353;47.856;12.344;2022-09-20T01:30:05;11.80;99.90
16485;DHT22;8353;47.856;12.344;2022-09-20T01:33:09;11.80;99.90
16485;DHT22;8353;47.856;12.344;2022-09-20T01:36:02;11.80;99.90
16485;DHT22;8353;47.856;12.344;2022-09-20T01:39:00;11.70;99.90
16485;DHT22;8353;47.856;12.344;2022-09-20T01:41:56;11.60;99.90
16485;DHT22;8353;47.856;12.344;2022-09-20T01:44:50;11.60;99.90
16485;DHT22;8353;47.856;12.344;2022-09-20T01:47:59;11.70;99.90
16485;DHT22;8353;47.856;12.344;2022-09-20T01:51:09;11.80;99.90
16485;DHT22;8353;47.856;12.344;2022-09-20T01:58:04;11.90;99.90
16485;DHT22;8353;47.856;12.344;2022-09-20T02:01:23;11.80;99.90
16485;DHT22;8353;47.856;12.344;2022-09-20T02:07:52;11.80;99.90
16485;DHT22;8353;47.856;12.344;2022-09-20T02:11:04;11.70;99.90
16485;DHT22;8353;47.856;12.344;2022-09-20T02:14:04;11.70;99.90
16485;DHT22;8353;47.856;12.344;2022-09-20T02:17:05;11.60;99.90
16485;DHT22;8353;47.856;12.344;2022-09-20T02:20:07;11.70;99.90
16485;DHT22;8353;47.856;12.344;2022-09-20T02:23:12;11.70;99.90
16485;DHT22;8353;47.856;12.344;2022-09-20T02:26:15;11.90;99.90
16485;DHT22;8353;47.856;12.344;2022-09-20T02:29:16;11.90;99.90
16485;DHT22;8353;47.856;12.344;2022-09-20T02:32:27;12.10;99.90
16485;DHT22;8353;47.856;12.344;2022-09-20T02:35:23;12.10;99.90
16485;DHT22;8353;47.856;12.344;2022-09-20T02:38:30;12.00;99.90
16485;DHT22;8353;47.856;12.344;2022-09-20T02:41:46;12.00;99.90
16485;DHT22;8353;47.856;12.344;2022-09-20T02:44:55;11.90;99.90
16485;DHT22;8353;47.856;12.344;2022-09-20T02:47:44;12.10;99.90
16485;DHT22;8353;47.856;12.344;2022-09-20T02:50:41;12.10;99.90
16485;DHT22;8353;47.856;12.344;2022-09-20T02:53:36;12.10;99.90
16485;DHT22;8353;47.856;12.344;2022-09-20T02:56:32;12.20;99.90
16485;DHT22;8353;47.856;12.344;2022-09-20T02:59:28;12.00;99.90
16485;DHT22;8353;47.856;12.344;2022-09-20T03:02:23;11.90;99.90
16485;DHT22;8353;47.856;12.344;2022-09-20T03:05:18;11.90;99.90
16485;DHT22;8353;47.856;12.344;2022-09-20T03:08:19;11.80;99.90
16485;DHT22;8353;47.856;12.344;2022-09-20T03:11:16;11.80;99.90
16485;DHT22;8353;47.856;12.344;2022-09-20T03:14:12;11.90;99.90
16485;DHT22;8353;47.856;12.344;2022-09-20T03:17:12;11.90;99.90
16485;DHT22;8353;47.856;12.344;2022-09-20T03:20:07;11.80;99.90
16485;DHT22;8353;47.856;12.344;2022-09-20T03:23:09;11.90;99.90
16485;DHT22;8353;47.856;12.344;2022-09-20T03:26:14;11.90;99.90
16485;DHT22;8353;47.856;12.344;2022-09-20T03:29:06;11.80;99.90
16485;DHT22;8353;47.856;12.344;2022-09-20T03:32:04;11.60;99.90
16485;DHT22;8353;47.856;12.344;2022-09-20T03:34:59;11.40;99.90
16485;DHT22;8353;47.856;12.344;2022-09-20T03:38:19;11.30;99.90
16485;DHT22;8353;47.856;12.344;2022-09-20T03:41:26;11.30;99.90
16485;DHT22;8353;47.856;12.344;2022-09-20T03:44:40;11.20;99.90
16485;DHT22;8353;47.856;12.344;2022-09-20T03:50:53;11.10;99.90
16485;DHT22;8353;47.856;12.344;2022-09-20T03:54:17;11.20;99.90
16485;DHT22;8353;47.856;12.344;2022-09-20T04:00:34;11.10;99.90
16485;DHT22;8353;47.856;12.344;2022-09-20T04:03:29;11.10;99.90
16485;DHT22;8353;47.856;12.344;2022-09-20T04:06:36;11.20;99.90
16485;DHT22;8353;47.856;12.344;2022-09-20T04:09:42;11.30;99.90
16485;DHT22;8353;47.856;12.344;2022-09-20T04:12:41;11.50;99.90
16485;DHT22;8353;47.856;12.344;2022-09-20T04:15:40;11.50;99.90
16485;DHT22;8353;47.856;12.344;2022-09-20T04:18:33;11.50;99.90
16485;DHT22;8353;47.856;12.344;2022-09-20T04:21:26;11.60;99.90
16485;DHT22;8353;47.856;12.344;2022-09-20T04:24:21;11.60;99.90
16485;DHT22;8353;47.856;12.344;2022-09-20T04:27:13;11.60;99.90
16485;DHT22;8353;47.856;12.344;2022-09-20T04:30:04;11.50;99.90
16485;DHT22;8353;47.856;12.344;2022-09-20T04:32:57;11.50;99.90
16485;DHT22;8353;47.856;12.344;2022-09-20T04:35:53;11.50;99.90
16485;DHT22;8353;47.856;12.344;2022-09-20T04:39:07;11.50;99.90
16485;DHT22;8353;47.856;12.344;2022-09-20T04:49:28;11.90;99.90
16485;DHT22;8353;47.856;12.344;2022-09-20T04:52:45;11.80;99.90
16485;DHT22;8353;47.856;12.344;2022-09-20T04:55:49;11.70;99.90
16485;DHT22;8353;47.856;12.344;2022-09-20T04:58:54;11.80;99.90
16485;DHT22;8353;47.856;12.344;2022-09-20T05:09:25;11.70;99.90
16485;DHT22;8353;47.856;12.344;2022-09-20T05:15:52;11.80;99.90
16485;DHT22;8353;47.856;12.344;2022-09-20T05:19:09;11.80;99.90
16485;DHT22;8353;47.856;12.344;2022-09-20T05:22:18;11.80;99.90
16485;DHT22;8353;47.856;12.344;2022-09-20T05:28:34;11.90;99.90
16485;DHT22;8353;47.856;12.344;2022-09-20T05:31:29;11.80;99.90
16485;DHT22;8353;47.856;12.344;2022-09-20T05:34:29;11.80;99.90
16485;DHT22;8353;47.856;12.344;2022-09-20T05:37:29;11.80;99.90
16485;DHT22;8353;47.856;12.344;2022-09-20T05:40:25;11.70;99.90
16485;DHT22;8353;47.856;12.344;2022-09-20T05:43:20;11.80;99.90
16485;DHT22;8353;47.856;12.344;2022-09-20T05:46:16;11.60;99.90
16485;DHT22;8353;47.856;12.344;2022-09-20T05:49:10;11.80;99.90
16485;DHT22;8353;47.856;12.344;2022-09-20T05:52:28;11.80;99.90
16485;DHT22;8353;47.856;12.344;2022-09-20T05:55:29;11.80;99.90
16485;DHT22;8353;47.856;12.344;2022-09-20T05:58:30;11.80;99.90
16485;DHT22;8353;47.856;12.344;2022-09-20T06:01:24;11.90;99.90
16485;DHT22;8353;47.856;12.344;2022-09-20T06:04:14;11.90;99.90
16485;DHT22;8353;47.856;12.344;2022-09-20T06:07:07;11.90;99.90
16485;DHT22;8353;47.856;12.344;2022-09-20T06:10:27;11.90;99.90
16485;DHT22;8353;47.856;12.344;2022-09-20T06:13:28;11.80;99.90
16485;DHT22;8353;47.856;12.344;2022-09-20T06:16:26;12.00;99.90
16485;DHT22;8353;47.856;12.344;2022-09-20T06:19:21;12.00;99.90
16485;DHT22;8353;47.856;12.344;2022-09-20T06:22:15;11.90;99.90
16485;DHT22;8353;47.856;12.344;2022-09-20T06:25:15;11.90;99.90
16485;DHT22;8353;47.856;12.344;2022-09-20T06:28:07;12.00;99.90
16485;DHT22;8353;47.856;12.344;2022-09-20T06:30:57;12.00;99.90
16485;DHT22;8353;47.856;12.344;2022-09-20T06:33:52;12.10;99.90
16485;DHT22;8353;47.856;12.344;2022-09-20T06:36:43;12.20;99.90
16485;DHT22;8353;47.856;12.344;2022-09-20T06:39:55;12.20;99.90
16485;DHT22;8353;47.856;12.344;2022-09-20T06:43:03;12.30;99.90
16485;DHT22;8353;47.856;12.344;2022-09-20T06:45:50;12.30;99.90
16485;DHT22;8353;47.856;12.344;2022-09-20T06:48:36;12.40;99.90
16485;DHT22;8353;47.856;12.344;2022-09-20T06:51:26;12.50;99.90
16485;DHT22;8353;47.856;12.344;2022-09-20T06:54:16;12.60;99.90
16485;DHT22;8353;47.856;12.344;2022-09-20T06:57:05;12.80;99.90
16485;DHT22;8353;47.856;12.344;2022-09-20T06:59:53;12.80;99.90
16485;DHT22;8353;47.856;12.344;2022-09-20T07:02:40;12.80;99.90
16485;DHT22;8353;47.856;12.344;2022-09-20T07:05:27;12.80;99.90
16485;DHT22;8353;47.856;12.344;2022-09-20T07:08:15;12.70;99.90
16485;DHT22;8353;47.856;12.344;2022-09-20T07:11:03;12.70;99.90
16485;DHT22;8353;47.856;12.344;2022-09-20T07:13:51;12.80;99.90
16485;DHT22;8353;47.856;12.344;2022-09-20T07:16:39;13.00;99.90
16485;DHT22;8353;47.856;12.344;2022-09-20T07:19:26;13.00;99.90
16485;DHT22;8353;47.856;12.344;2022-09-20T07:22:13;12.80;99.90
16485;DHT22;8353;47.856;12.344;2022-09-20T07:25:00;12.70;99.90
16485;DHT22;8353;47.856;12.344;2022-09-20T07:27:48;12.80;99.90
16485;DHT22;8353;47.856;12.344;2022-09-20T07:30:35;12.90;99.90
16485;DHT22;8353;47.856;12.344;2022-09-20T07:33:25;13.00;99.90
16485;DHT22;8353;47.856;12.344;2022-09-20T07:36:29;13.00;99.90
16485;DHT22;8353;47.856;12.344;2022-09-20T07:39:21;12.90;99.90
16485;DHT22;8353;47.856;12.344;2022-09-20T07:42:08;12.90;99.90
16485;DHT22;8353;47.856;12.344;2022-09-20T07:44:55;12.80;99.90
16485;DHT22;8353;47.856;12.344;2022-09-20T07:47:41;12.90;99.90
16485;DHT22;8353;47.856;12.344;2022-09-20T07:50:32;13.00;99.90
16485;DHT22;8353;47.856;12.344;2022-09-20T07:53:19;13.10;99.90
16485;DHT22;8353;47.856;12.344;2022-09-20T07:56:09;13.10;99.90
16485;DHT22;8353;47.856;12.344;2022-09-20T07:58:55;12.90;99.90
16485;DHT22;8353;47.856;12.344;2022-09-20T08:01:43;12.90;99.90
16485;DHT22;8353;47.856;12.344;2022-09-20T08:04:29;13.00;99.90
16485;DHT22;8353;47.856;12.344;2022-09-20T08:07:18;12.90;99.90
16485;DHT22;8353;47.856;12.344;2022-09-20T08:10:05;12.70;99.90
16485;DHT22;8353;47.856;12.344;2022-09-20T08:12:52;12.80;99.90
16485;DHT22;8353;47.856;12.344;2022-09-20T08:15:39;12.80;99.90
16485;DHT22;8353;47.856;12.344;2022-09-20T08:18:26;12.70;99.90
16485;DHT22;8353;47.856;12.344;2022-09-20T08:21:14;12.70;99.90
16485;DHT22;8353;47.856;12.344;2022-09-20T08:24:02;12.70;99.90
16485;DHT22;8353;47.856;12.344;2022-09-20T08:26:49;12.70;99.90
16485;DHT22;8353;47.856;12.344;2022-09-20T08:29:36;12.80;99.90
16485;DHT22;8353;47.856;12.344;2022-09-20T08:32:23;12.90;99.90
16485;DHT22;8353;47.856;12.344;2022-09-20T08:35:10;13.00;99.90
16485;DHT22;8353;47.856;12.344;2022-09-20T08:37:59;13.10;99.90
16485;DHT22;8353;47.856;12.344;2022-09-20T08:40:51;13.10;99.90
16485;DHT22;8353;47.856;12.344;2022-09-20T08:43:52;13.00;99.90
16485;DHT22;8353;47.856;12.344;2022-09-20T08:46:42;13.10;99.90
16485;DHT22;8353;47.856;12.344;2022-09-20T08:49:31;13.10;99.90
16485;DHT22;8353;47.856;12.344;2022-09-20T08:52:22;12.90;99.90
16485;DHT22;8353;47.856;12.344;2022-09-20T08:55:14;12.80;99.90
16485;DHT22;8353;47.856;12.344;2022-09-20T08:58:03;12.90;99.90
16485;DHT22;8353;47.856;12.344;2022-09-20T09:00:51;13.10;99.90
16485;DHT22;8353;47.856;12.344;2022-09-20T09:03:38;13.10;99.90
16485;DHT22;8353;47.856;12.344;2022-09-20T09:06:24;13.00;99.90
16485;DHT22;8353;47.856;12.344;2022-09-20T09:09:16;12.90;99.90
16485;DHT22;8353;47.856;12.344;2022-09-20T09:12:04;12.70;99.90
16485;DHT22;8353;47.856;12.344;2022-09-20T09:14:57;13.00;99.90
16485;DHT22;8353;47.856;12.344;2022-09-20T09:17:44;13.10;99.90
16485;DHT22;8353;47.856;12.344;2022-09-20T09:20:39;13.10;99.90
16485;DHT22;8353;47.856;12.344;2022-09-20T09:23:27;13.00;99.90
16485;DHT22;8353;47.856;12.344;2022-09-20T09:26:21;13.00;99.90
16485;DHT22;8353;47.856;12.344;2022-09-20T09:29:16;12.80;99.90
16485;DHT22;8353;47.856;12.344;2022-09-20T09:32:23;12.90;99.90
16485;DHT22;8353;47.856;12.344;2022-09-20T09:35:24;12.90;99.90
16485;DHT22;8353;47.856;12.344;2022-09-20T09:38:19;12.70;99.90
16485;DHT22;8353;47.856;12.344;2022-09-20T09:41:20;12.40;99.90
16485;DHT22;8353;47.856;12.344;2022-09-20T09:44:19;12.60;99.90
16485;DHT22;8353;47.856;12.344;2022-09-20T09:47:24;12.60;99.90
16485;DHT22;8353;47.856;12.344;2022-09-20T09:50:21;12.50;99.90
16485;DHT22;8353;47.856;12.344;2022-09-20T09:53:11;12.40;99.90
16485;DHT22;8353;47.856;12.344;2022-09-20T09:56:13;12.50;99.90
16485;DHT22;8353;47.856;12.344;2022-09-20T09:59:15;12.70;99.90
16485;DHT22;8353;47.856;12.344;2022-09-20T10:02:17;12.70;99.90
16485;DHT22;8353;47.856;12.344;2022-09-20T10:05:15;12.80;99.90
16485;DHT22;8353;47.856;12.344;2022-09-20T10:08:13;12.70;99.90
16485;DHT22;8353;47.856;12.344;2022-09-20T10:11:13;12.60;99.90
16485;DHT22;8353;47.856;12.344;2022-09-20T10:14:12;12.70;99.90
16485;DHT22;8353;47.856;12.344;2022-09-20T10:17:18;12.80;99.90
16485;DHT22;8353;47.856;12.344;2022-09-20T10:20:23;12.80;99.90
16485;DHT22;8353;47.856;12.344;2022-09-20T10:23:24;12.80;99.90
16485;DHT22;8353;47.856;12.344;2022-09-20T10:26:22;12.70;99.90
16485;DHT22;8353;47.856;12.344;2022-09-20T10:29:18;12.90;99.90
16485;DHT22;8353;47.856;12.344;2022-09-20T10:32:19;12.90;99.90
16485;DHT22;8353;47.856;12.344;2022-09-20T10:35:18;12.80;99.90
16485;DHT22;8353;47.856;12.344;2022-09-20T10:38:16;12.70;99.90
16485;DHT22;8353;47.856;12.344;2022-09-20T10:41:15;12.90;99.90
16485;DHT22;8353;47.856;12.344;2022-09-20T10:44:41;12.90;99.90
16485;DHT22;8353;47.856;12.344;2022-09-20T10:47:34;13.00;99.90
16485;DHT22;8353;47.856;12.344;2022-09-20T10:50:32;13.20;99.90
16485;DHT22;8353;47.856;12.344;2022-09-20T10:53:30;13.30;99.90
16485;DHT22;8353;47.856;12.344;2022-09-20T10:56:25;13.20;99.90
16485;DHT22;8353;47.856;12.344;2022-09-20T10:59:31;13.40;99.90
16485;DHT22;8353;47.856;12.344;2022-09-20T11:02:34;13.30;99.90
16485;DHT22;8353;47.856;12.344;2022-09-20T11:05:33;13.30;99.90
16485;DHT22;8353;47.856;12.344;2022-09-20T11:08:26;13.30;99.90
16485;DHT22;8353;47.856;12.344;2022-09-20T11:11:18;13.20;99.90
16485;DHT22;8353;47.856;12.344;2022-09-20T11:14:09;13.20;99.90
16485;DHT22;8353;47.856;12.344;2022-09-20T11:17:02;13.00;99.90
16485;DHT22;8353;47.856;12.344;2022-09-20T11:19:56;13.00;99.90
16485;DHT22;8353;47.856;12.344;2022-09-20T11:22:47;13.20;99.90
16485;DHT22;8353;47.856;12.344;2022-09-20T11:25:41;13.30;99.90
16485;DHT22;8353;47.856;12.344;2022-09-20T11:28:35;13.20;99.90
16485;DHT22;8353;47.856;12.344;2022-09-20T11:31:26;13.10;99.90
16485;DHT22;8353;47.856;12.344;2022-09-20T11:34:20;12.90;99.90
16485;DHT22;8353;47.856;12.344;2022-09-20T11:37:08;12.80;99.90
16485;DHT22;8353;47.856;12.344;2022-09-20T11:39:59;12.70;99.90
16485;DHT22;8353;47.856;12.344;2022-09-20T11:42:49;12.50;99.90
16485;DHT22;8353;47.856;12.344;2022-09-20T11:45:39;12.50;99.90
16485;DHT22;8353;47.856;12.344;2022-09-20T11:48:29;12.60;99.90
16485;DHT22;8353;47.856;12.344;2022-09-20T11:55:04;12.60;99.90
16485;DHT22;8353;47.856;12.344;2022-09-20T11:58:03;12.90;99.90
16485;DHT22;8353;47.856;12.344;2022-09-20T12:00:52;12.90;99.90
16485;DHT22;8353;47.856;12.344;2022-09-20T12:03:43;13.20;99.90
16485;DHT22;8353;47.856;12.344;2022-09-20T12:06:34;13.20;99.90
16485;DHT22;8353;47.856;12.344;2022-09-20T12:09:24;13.20;99.90
16485;DHT22;8353;47.856;12.344;2022-09-20T12:12:21;13.20;99.90
16485;DHT22;8353;47.856;12.344;2022-09-20T12:15:25;13.40;99.90
16485;DHT22;8353;47.856;12.344;2022-09-20T12:18:33;13.40;99.90
16485;DHT22;8353;47.856;12.344;2022-09-20T12:21:21;13.50;99.90
16485;DHT22;8353;47.856;12.344;2022-09-20T12:24:20;13.60;99.90
16485;DHT22;8353;47.856;12.344;2022-09-20T12:27:55;13.80;99.90
16485;DHT22;8353;47.856;12.344;2022-09-20T12:30:44;13.70;99.90
16485;DHT22;8353;47.856;12.344;2022-09-20T12:33:54;13.70;99.90
16485;DHT22;8353;47.856;12.344;2022-09-20T12:36:43;13.70;99.90
16485;DHT22;8353;47.856;12.344;2022-09-20T12:39:32;13.90;99.90
16485;DHT22;8353;47.856;12.344;2022-09-20T12:42:27;14.00;99.90
16485;DHT22;8353;47.856;12.344;2022-09-20T12:45:15;14.20;99.90
16485;DHT22;8353;47.856;12.344;2022-09-20T12:48:16;14.20;99.90
16485;DHT22;8353;47.856;12.344;2022-09-20T12:51:18;14.30;99.90
16485;DHT22;8353;47.856;12.344;2022-09-20T12:54:25;14.30;99.90
16485;DHT22;8353;47.856;12.344;2022-09-20T12:57:16;14.40;99.90
16485;DHT22;8353;47.856;12.344;2022-09-20T13:00:06;14.60;99.90
16485;DHT22;8353;47.856;12.344;2022-09-20T13:02:58;14.80;99.90
16485;DHT22;8353;47.856;12.344;2022-09-20T13:05:47;14.80;99.90
16485;DHT22;8353;47.856;12.344;2022-09-20T13:08:41;15.00;99.90
16485;DHT22;8353;47.856;12.344;2022-09-20T13:11:34;15.20;99.90
16485;DHT22;8353;47.856;12.344;2022-09-20T13:14:24;15.30;99.90
16485;DHT22;8353;47.856;12.344;2022-09-20T13:17:23;15.50;99.90
16485;DHT22;8353;47.856;12.344;2022-09-20T13:20:16;15.50;99.90
16485;DHT22;8353;47.856;12.344;2022-09-20T13:23:06;15.60;99.90
16485;DHT22;8353;47.856;12.344;2022-09-20T13:25:57;15.50;99.90
16485;DHT22;8353;47.856;12.344;2022-09-20T13:28:49;15.50;99.90
16485;DHT22;8353;47.856;12.344;2022-09-20T13:31:36;15.60;99.90
16485;DHT22;8353;47.856;12.344;2022-09-20T13:34:24;15.70;99.90
16485;DHT22;8353;47.856;12.344;2022-09-20T13:37:16;15.80;99.90
16485;DHT22;8353;47.856;12.344;2022-09-20T13:40:16;16.10;99.90
16485;DHT22;8353;47.856;12.344;2022-09-20T13:43:06;16.10;99.90
16485;DHT22;8353;47.856;12.344;2022-09-20T13:46:06;16.10;99.90
16485;DHT22;8353;47.856;12.344;2022-09-20T13:48:58;15.80;99.90
16485;DHT22;8353;47.856;12.344;2022-09-20T13:51:54;15.70;99.90
16485;DHT22;8353;47.856;12.344;2022-09-20T13:54:41;15.70;99.90
16485;DHT22;8353;47.856;12.344;2022-09-20T13:57:29;15.80;99.90
16485;DHT22;8353;47.856;12.344;2022-09-20T14:00:19;15.80;99.90
16485;DHT22;8353;47.856;12.344;2022-09-20T14:03:06;16.10;99.90
16485;DHT22;8353;47.856;12.344;2022-09-20T14:05:54;16.10;99.90
16485;DHT22;8353;47.856;12.344;2022-09-20T14:08:44;16.10;99.90
16485;DHT22;8353;47.856;12.344;2022-09-20T14:11:32;15.80;99.90
16485;DHT22;8353;47.856;12.344;2022-09-20T14:14:23;15.90;99.90
16485;DHT22;8353;47.856;12.344;2022-09-20T14:17:14;15.90;99.90
16485;DHT22;8353;47.856;12.344;2022-09-20T14:20:04;16.00;99.90
16485;DHT22;8353;47.856;12.344;2022-09-20T14:22:52;16.30;99.90
16485;DHT22;8353;47.856;12.344;2022-09-20T14:25:40;16.40;99.90
16485;DHT22;8353;47.856;12.344;2022-09-20T14:28:27;16.40;99.90
16485;DHT22;8353;47.856;12.344;2022-09-20T14:31:18;16.50;99.90
16485;DHT22;8353;47.856;12.344;2022-09-20T14:34:11;16.50;99.90
16485;DHT22;8353;47.856;12.344;2022-09-20T14:37:04;16.30;99.90
16485;DHT22;8353;47.856;12.344;2022-09-20T14:39:56;16.20;99.90
16485;DHT22;8353;47.856;12.344;2022-09-20T14:42:46;16.10;99.90
16485;DHT22;8353;47.856;12.344;2022-09-20T14:45:35;16.20;99.90
16485;DHT22;8353;47.856;12.344;2022-09-20T14:48:35;16.20;99.90
16485;DHT22;8353;47.856;12.344;2022-09-20T14:51:23;16.30;99.90
16485;DHT22;8353;47.856;12.344;2022-09-20T14:54:23;16.20;99.90
16485;DHT22;8353;47.856;12.344;2022-09-20T14:57:11;16.00;99.90
16485;DHT22;8353;47.856;12.344;2022-09-20T15:00:04;15.90;99.90
16485;DHT22;8353;47.856;12.344;2022-09-20T15:02:53;16.20;99.90
16485;DHT22;8353;47.856;12.344;2022-09-20T15:05:45;16.10;99.90
16485;DHT22;8353;47.856;12.344;2022-09-20T15:08:33;15.90;99.90
16485;DHT22;8353;47.856;12.344;2022-09-20T15:11:22;15.90;99.90
16485;DHT22;8353;47.856;12.344;2022-09-20T15:14:10;16.00;99.90
16485;DHT22;8353;47.856;12.344;2022-09-20T15:16:59;16.10;99.90
16485;DHT22;8353;47.856;12.344;2022-09-20T15:19:50;16.20;99.90
16485;DHT22;8353;47.856;12.344;2022-09-20T15:22:39;16.30;99.90
16485;DHT22;8353;47.856;12.344;2022-09-20T15:25:26;16.20;99.90
16485;DHT22;8353;47.856;12.344;2022-09-20T15:28:15;16.10;99.90
16485;DHT22;8353;47.856;12.344;2022-09-20T15:31:02;15.70;99.90
16485;DHT22;8353;47.856;12.344;2022-09-20T15:33:51;15.70;99.90
16485;DHT22;8353;47.856;12.344;2022-09-20T15:36:39;15.70;99.90
16485;DHT22;8353;47.856;12.344;2022-09-20T15:39:29;15.70;99.90
16485;DHT22;8353;47.856;12.344;2022-09-20T15:42:16;15.70;99.90
16485;DHT22;8353;47.856;12.344;2022-09-20T15:45:08;15.50;99.90
16485;DHT22;8353;47.856;12.344;2022-09-20T15:47:56;15.40;99.90
16485;DHT22;8353;47.856;12.344;2022-09-20T15:50:43;15.40;99.90
16485;DHT22;8353;47.856;12.344;2022-09-20T15:53:31;15.10;99.90
16485;DHT22;8353;47.856;12.344;2022-09-20T15:56:21;15.00;99.90
16485;DHT22;8353;47.856;12.344;2022-09-20T15:59:10;14.90;99.90
16485;DHT22;8353;47.856;12.344;2022-09-20T16:01:58;14.90;99.90
16485;DHT22;8353;47.856;12.344;2022-09-20T16:04:45;14.90;99.90
16485;DHT22;8353;47.856;12.344;2022-09-20T16:07:32;14.90;99.90
16485;DHT22;8353;47.856;12.344;2022-09-20T16:10:20;14.80;99.90
16485;DHT22;8353;47.856;12.344;2022-09-20T16:13:08;14.80;99.90
16485;DHT22;8353;47.856;12.344;2022-09-20T16:15:55;14.90;99.90
16485;DHT22;8353;47.856;12.344;2022-09-20T16:18:42;14.70;99.90
16485;DHT22;8353;47.856;12.344;2022-09-20T16:21:48;14.60;99.90
16485;DHT22;8353;47.856;12.344;2022-09-20T16:24:38;14.40;99.90
16485;DHT22;8353;47.856;12.344;2022-09-20T16:27:25;14.30;99.90
16485;DHT22;8353;47.856;12.344;2022-09-20T16:30:13;14.40;99.90
16485;DHT22;8353;47.856;12.344;2022-09-20T16:33:00;14.40;99.90
16485;DHT22;8353;47.856;12.344;2022-09-20T16:35:49;14.40;99.90
16485;DHT22;8353;47.856;12.344;2022-09-20T16:38:36;14.60;99.90
16485;DHT22;8353;47.856;12.344;2022-09-20T16:41:24;14.70;99.90
16485;DHT22;8353;47.856;12.344;2022-09-20T16:44:13;14.50;99.90
16485;DHT22;8353;47.856;12.344;2022-09-20T16:47:02;14.50;99.90
16485;DHT22;8353;47.856;12.344;2022-09-20T16:49:51;14.60;99.90
16485;DHT22;8353;47.856;12.344;2022-09-20T16:52:38;14.70;99.90
16485;DHT22;8353;47.856;12.344;2022-09-20T16:55:25;14.80;99.90
16485;DHT22;8353;47.856;12.344;2022-09-20T16:58:12;14.70;99.90
16485;DHT22;8353;47.856;12.344;2022-09-20T17:01:02;14.70;99.90
16485;DHT22;8353;47.856;12.344;2022-09-20T17:03:51;14.70;99.90
16485;DHT22;8353;47.856;12.344;2022-09-20T17:06:38;14.70;99.90
16485;DHT22;8353;47.856;12.344;2022-09-20T17:09:25;14.60;99.90
16485;DHT22;8353;47.856;12.344;2022-09-20T17:12:13;14.40;99.90
16485;DHT22;8353;47.856;12.344;2022-09-20T17:15:04;14.40;99.90
16485;DHT22;8353;47.856;12.344;2022-09-20T17:17:51;14.50;99.90
16485;DHT22;8353;47.856;12.344;2022-09-20T17:20:39;14.60;99.90
16485;DHT22;8353;47.856;12.344;2022-09-20T17:23:26;14.60;99.90
16485;DHT22;8353;47.856;12.344;2022-09-20T17:26:15;14.60;99.90
16485;DHT22;8353;47.856;12.344;2022-09-20T17:29:04;14.50;99.90
16485;DHT22;8353;47.856;12.344;2022-09-20T17:31:51;14.50;99.90
16485;DHT22;8353;47.856;12.344;2022-09-20T17:34:38;14.40;99.90
16485;DHT22;8353;47.856;12.344;2022-09-20T17:37:26;14.20;99.90
16485;DHT22;8353;47.856;12.344;2022-09-20T17:40:13;14.30;99.90
16485;DHT22;8353;47.856;12.344;2022-09-20T17:43:00;14.30;99.90
16485;DHT22;8353;47.856;12.344;2022-09-20T17:45:47;14.30;99.90
16485;DHT22;8353;47.856;12.344;2022-09-20T17:48:34;14.30;99.90
16485;DHT22;8353;47.856;12.344;2022-09-20T17:51:23;14.00;99.90
16485;DHT22;8353;47.856;12.344;2022-09-20T17:54:12;13.90;99.90
16485;DHT22;8353;47.856;12.344;2022-09-20T17:56:59;14.00;99.90
16485;DHT22;8353;47.856;12.344;2022-09-20T17:59:46;13.90;99.90
16485;DHT22;8353;47.856;12.344;2022-09-20T18:02:33;14.00;99.90
16485;DHT22;8353;47.856;12.344;2022-09-20T18:05:20;14.00;99.90
16485;DHT22;8353;47.856;12.344;2022-09-20T18:08:07;14.00;99.90
16485;DHT22;8353;47.856;12.344;2022-09-20T18:10:56;14.00;99.90
16485;DHT22;8353;47.856;12.344;2022-09-20T18:13:43;14.00;99.90
16485;DHT22;8353;47.856;12.344;2022-09-20T18:16:31;14.00;99.90
16485;DHT22;8353;47.856;12.344;2022-09-20T18:19:18;14.00;99.90
16485;DHT22;8353;47.856;12.344;2022-09-20T18:22:07;13.80;99.90
16485;DHT22;8353;47.856;12.344;2022-09-20T18:24:53;13.60;99.90
16485;DHT22;8353;47.856;12.344;2022-09-20T18:27:41;13.70;99.90
16485;DHT22;8353;47.856;12.344;2022-09-20T18:30:28;13.50;99.90
16485;DHT22;8353;47.856;12.344;2022-09-20T18:33:18;13.60;99.90
16485;DHT22;8353;47.856;12.344;2022-09-20T18:36:06;13.70;99.90
16485;DHT22;8353;47.856;12.344;2022-09-20T18:38:53;13.70;99.90
16485;DHT22;8353;47.856;12.344;2022-09-20T18:41:41;13.70;99.90
16485;DHT22;8353;47.856;12.344;2022-09-20T18:44:29;13.90;99.90
16485;DHT22;8353;47.856;12.344;2022-09-20T18:47:18;13.80;99.90
16485;DHT22;8353;47.856;12.344;2022-09-20T18:50:06;13.90;99.90
16485;DHT22;8353;47.856;12.344;2022-09-20T18:52:54;13.90;99.90
16485;DHT22;8353;47.856;12.344;2022-09-20T18:55:44;13.80;99.90